createdAt,value
2023-02-07T00:01:23.017Z,104322.91
2023-02-07T00:03:24.532Z,104324.59
2023-02-07T00:05:26.061Z,104321.09
2023-02-07T00:07:27.638Z,104312.19
2023-02-07T00:09:29.179Z,104311.13
2023-02-07T00:11:30.910Z,104309.22
2023-02-07T00:13:32.475Z,104314.41
2023-02-07T00:15:33.982Z,104310.78
2023-02-07T00:17:35.493Z,104317.53
2023-02-07T00:19:36.955Z,104314.69
2023-02-07T00:21:38.542Z,104318.06
2023-02-07T00:23:40.401Z,104316.38
2023-02-07T00:25:45.859Z,104317.06
2023-02-07T00:27:47.377Z,104313.19
2023-02-07T00:29:48.890Z,104323.44
2023-02-07T00:31:50.352Z,104319.03
2023-02-07T00:33:55.504Z,104313.88
2023-02-07T00:36:01.949Z,104318.16
2023-02-07T00:38:03.607Z,104308.69
2023-02-07T00:40:05.707Z,104304.19
2023-02-07T00:42:07.228Z,104302.38
2023-02-07T00:44:09.577Z,104303.94
2023-02-07T00:46:11.887Z,104296.94
2023-02-07T00:48:13.667Z,104296.84
2023-02-07T00:50:15.140Z,104304.47
2023-02-07T00:52:16.580Z,104299.31
2023-02-07T00:54:18.080Z,104298.28
2023-02-07T00:56:20.809Z,104288.59
2023-02-07T00:58:22.421Z,104289.25
2023-02-07T01:00:23.913Z,104293.41
2023-02-07T01:02:25.417Z,104296.00
2023-02-07T01:04:26.950Z,104290.69
2023-02-07T01:06:29.662Z,104291.59
2023-02-07T01:08:31.245Z,104287.22
2023-02-07T01:10:33.074Z,104283.56
2023-02-07T01:12:34.606Z,104282.66
2023-02-07T01:14:36.243Z,104283.44
2023-02-07T01:16:37.858Z,104288.63
2023-02-07T01:18:39.290Z,104294.56
2023-02-07T01:20:40.914Z,104295.22
2023-02-07T01:22:42.397Z,104302.09
2023-02-07T01:24:43.861Z,104291.38
2023-02-07T01:26:45.424Z,104298.25
2023-02-07T01:28:46.962Z,104287.78
2023-02-07T01:30:48.547Z,104292.16
2023-02-07T01:32:50.550Z,104297.22
2023-02-07T01:34:52.038Z,104307.31
2023-02-07T01:36:53.514Z,104299.19
2023-02-07T01:38:55.574Z,104301.53
2023-02-07T01:40:57.026Z,104303.22
2023-02-07T01:42:59.260Z,104296.25
2023-02-07T01:45:33.163Z,104297.81
2023-02-07T01:47:37.281Z,104282.03
2023-02-07T01:49:38.923Z,104288.00
2023-02-07T01:51:44.732Z,104287.88
2023-02-07T01:53:46.929Z,104298.88
2023-02-07T01:55:50.991Z,104293.59
2023-02-07T01:57:53.538Z,104293.59
2023-02-07T01:59:56.573Z,104295.28
2023-02-07T02:02:01.672Z,104290.88
2023-02-07T02:04:03.851Z,104296.03
2023-02-07T02:06:06.278Z,104300.19
2023-02-07T02:08:07.778Z,104297.47
2023-02-07T02:10:57.295Z,104286.06
2023-02-07T02:13:31.226Z,104284.28
2023-02-07T02:15:39.423Z,104282.34
2023-02-07T02:18:19.738Z,104290.88
2023-02-07T02:20:33.100Z,104283.91
2023-02-07T02:22:49.560Z,104276.03
2023-02-07T02:24:57.094Z,104268.13
2023-02-07T02:27:13.914Z,104269.69
2023-02-07T02:29:30.683Z,104276.31
2023-02-07T02:32:06.344Z,104264.94
2023-02-07T02:34:21.880Z,104263.13
2023-02-07T02:36:55.792Z,104263.13
2023-02-07T02:39:17.460Z,104258.63
2023-02-07T02:41:23.824Z,104259.28
2023-02-07T02:43:31.199Z,104262.63
2023-02-07T02:46:02.701Z,104264.44
2023-02-07T02:48:06.230Z,104267.81
2023-02-07T02:50:32.296Z,104265.34
2023-02-07T02:52:49.599Z,104259.28
2023-02-07T02:54:51.943Z,104250.75
2023-02-07T02:57:08.669Z,104254.22
2023-02-07T02:59:28.944Z,104247.38
2023-02-07T03:01:54.784Z,104237.03
2023-02-07T03:04:08.357Z,104236.13
2023-02-07T03:06:28.219Z,104242.19
2023-02-07T03:08:43.482Z,104243.09
2023-02-07T03:10:51.062Z,104228.38
2023-02-07T03:13:07.661Z,104227.59
2023-02-07T03:15:24.508Z,104235.34
2023-02-07T03:17:37.378Z,104230.19
2023-02-07T03:19:44.089Z,104231.06
2023-02-07T03:21:56.126Z,104223.56
2023-02-07T03:24:01.626Z,104224.22
2023-02-07T03:26:04.721Z,104235.47
2023-02-07T03:28:08.106Z,104234.69
2023-02-07T03:30:13.195Z,104222.53
2023-02-07T03:32:17.826Z,104225.13
2023-02-07T03:34:25.693Z,104229.28
2023-02-07T03:36:37.161Z,104229.28
2023-02-07T03:38:38.887Z,104236.78
2023-02-07T03:40:49.334Z,104240.16
2023-02-07T03:43:06.257Z,104239.13
2023-02-07T03:45:12.688Z,104259.56
2023-02-07T03:47:17.381Z,104263.44
2023-02-07T03:49:18.830Z,104263.31
2023-02-07T03:51:20.347Z,104257.13
2023-02-07T03:53:21.991Z,104261.41
2023-02-07T03:55:23.494Z,104261.28
2023-02-07T03:57:25.000Z,104256.72
2023-02-07T03:59:27.919Z,104248.06
2023-02-07T04:01:29.580Z,104242.00
2023-02-07T04:03:31.063Z,104239.28
2023-02-07T04:05:32.697Z,104235.66
2023-02-07T04:07:34.499Z,104241.50
2023-02-07T04:09:36.034Z,104236.06
2023-02-07T04:11:37.520Z,104230.91
2023-02-07T04:13:39.208Z,104226.38
2023-02-07T04:15:40.721Z,104227.16
2023-02-07T04:17:42.229Z,104226.91
2023-02-07T04:19:43.698Z,104235.31
2023-02-07T04:21:45.185Z,104248.13
2023-02-07T04:23:46.660Z,104240.25
2023-02-07T04:25:48.124Z,104236.63
2023-02-07T04:27:50.726Z,104230.44
2023-02-07T04:29:52.431Z,104230.31
2023-02-07T04:31:53.946Z,104233.66
2023-02-07T04:33:55.436Z,104241.16
2023-02-07T04:35:58.681Z,104233.28
2023-02-07T04:38:00.242Z,104237.44
2023-02-07T04:40:01.892Z,104237.16
2023-02-07T04:42:03.596Z,104245.69
2023-02-07T04:44:05.215Z,104242.09
2023-02-07T04:46:07.618Z,104244.50
2023-02-07T04:48:09.137Z,104245.16
2023-02-07T04:50:10.624Z,104234.56
2023-02-07T04:52:12.099Z,104237.94
2023-02-07T04:54:13.589Z,104230.94
2023-02-07T04:56:15.056Z,104226.31
2023-02-07T04:58:16.914Z,104228.63
2023-02-07T05:00:18.852Z,104232.13
2023-02-07T05:02:20.339Z,104241.56
2023-02-07T05:04:21.842Z,104242.44
2023-02-07T05:06:23.365Z,104237.16
2023-02-07T05:08:26.293Z,104228.38
2023-02-07T05:10:27.906Z,104227.47
2023-02-07T05:12:29.341Z,104228.25
2023-02-07T05:14:30.999Z,104238.47
2023-02-07T05:16:32.516Z,104240.00
2023-02-07T05:18:34.061Z,104236.53
2023-02-07T05:20:35.560Z,104233.03
2023-02-07T05:22:37.021Z,104241.56
2023-02-07T05:24:38.737Z,104246.59
2023-02-07T05:26:40.520Z,104252.41
2023-02-07T05:28:42.034Z,104252.91
2023-02-07T05:30:43.900Z,104253.69
2023-02-07T05:33:03.511Z,104245.16
2023-02-07T05:35:05.366Z,104233.03
2023-02-07T05:37:06.814Z,104243.38
2023-02-07T05:39:08.301Z,104249.03
2023-02-07T05:41:09.748Z,104255.75
2023-02-07T05:43:12.181Z,104241.31
2023-02-07T05:45:13.675Z,104235.38
2023-02-07T05:47:15.223Z,104235.50
2023-02-07T05:49:16.824Z,104246.47
2023-02-07T05:51:18.922Z,104255.09
2023-02-07T05:53:20.469Z,104249.81
2023-02-07T05:55:21.929Z,104249.81
2023-02-07T05:57:23.824Z,104250.72
2023-02-07T05:59:25.307Z,104260.00
2023-02-07T06:01:26.817Z,104263.38
2023-02-07T06:03:28.334Z,104263.19
2023-02-07T06:05:31.857Z,104262.31
2023-02-07T06:07:33.844Z,104268.09
2023-02-07T06:09:35.348Z,104261.91
2023-02-07T06:11:36.803Z,104263.72
2023-02-07T06:13:39.355Z,104267.97
2023-02-07T06:15:41.268Z,104271.47
2023-02-07T06:17:43.007Z,104277.41
2023-02-07T06:19:44.484Z,104287.59
2023-02-07T06:21:47.013Z,104283.19
2023-02-07T06:23:49.206Z,104279.84
2023-02-07T06:25:50.866Z,104279.72
2023-02-07T06:27:52.356Z,104288.09
2023-02-07T06:29:53.850Z,104293.91
2023-02-07T06:31:55.359Z,104294.66
2023-02-07T06:33:56.831Z,104287.06
2023-02-07T06:35:58.351Z,104285.25
2023-02-07T06:37:59.909Z,104293.00
2023-02-07T06:40:01.487Z,104299.69
2023-02-07T06:42:03.134Z,104306.41
2023-02-07T06:44:04.921Z,104308.06
2023-02-07T06:46:06.903Z,104293.50
2023-02-07T06:48:09.377Z,104295.19
2023-02-07T06:50:10.860Z,104295.03
2023-02-07T06:52:12.608Z,104293.22
2023-02-07T06:54:14.180Z,104298.53
2023-02-07T06:56:18.354Z,104299.31
2023-02-07T06:58:20.085Z,104303.56
2023-02-07T07:00:22.703Z,104311.16
2023-02-07T07:02:24.217Z,104314.66
2023-02-07T07:04:26.151Z,104316.31
2023-02-07T07:06:27.600Z,104318.91
2023-02-07T07:08:29.332Z,104326.50
2023-02-07T07:10:30.867Z,104316.19
2023-02-07T07:12:32.338Z,104316.31
2023-02-07T07:14:33.917Z,104319.94
2023-02-07T07:16:35.439Z,104315.69
2023-02-07T07:18:38.502Z,104318.41
2023-02-07T07:20:40.072Z,104320.97
2023-02-07T07:22:41.564Z,104319.44
2023-02-07T07:24:43.428Z,104325.63
2023-02-07T07:26:49.773Z,104312.72
2023-02-07T07:28:51.597Z,104321.50
2023-02-07T07:30:53.322Z,104319.06
2023-02-07T07:32:55.395Z,104323.44
2023-02-07T07:34:56.853Z,104327.19
2023-02-07T07:36:58.494Z,104329.00
2023-02-07T07:38:59.963Z,104324.88
2023-02-07T07:41:01.443Z,104331.09
2023-02-07T07:43:03.070Z,104332.16
2023-02-07T07:45:04.844Z,104326.47
2023-02-07T07:47:06.785Z,104335.41
2023-02-07T07:49:08.890Z,104326.22
2023-02-07T07:51:10.436Z,104320.44
2023-02-07T07:53:11.933Z,104324.94
2023-02-07T07:55:15.400Z,104330.38
2023-02-07T07:57:16.878Z,104329.72
2023-02-07T07:59:23.923Z,104330.13
2023-02-07T08:01:25.817Z,104328.56
2023-02-07T08:03:27.374Z,104333.09
2023-02-07T08:05:28.919Z,104336.06
2023-02-07T08:07:30.439Z,104334.53
2023-02-07T08:09:31.961Z,104336.44
2023-02-07T08:11:33.466Z,104340.97
2023-02-07T08:13:35.784Z,104347.47
2023-02-07T08:15:37.349Z,104332.09
2023-02-07T08:17:38.964Z,104337.66
2023-02-07T08:19:40.430Z,104330.16
2023-02-07T08:21:44.532Z,104338.41
2023-02-07T08:23:46.229Z,104336.88
2023-02-07T08:25:49.776Z,104335.56
2023-02-07T08:27:51.302Z,104331.31
2023-02-07T08:29:52.819Z,104334.28
2023-02-07T08:31:54.343Z,104332.06
2023-02-07T08:33:55.864Z,104325.47
2023-02-07T08:35:58.612Z,104321.50
2023-02-07T08:38:00.164Z,104314.91
2023-02-07T08:40:02.410Z,104327.28
2023-02-07T08:42:08.273Z,104329.34
2023-02-07T08:44:09.788Z,104334.00
2023-02-07T08:46:11.378Z,104330.88
2023-02-07T08:48:13.168Z,104322.59
2023-02-07T08:50:16.822Z,104327.25
2023-02-07T08:52:18.320Z,104329.31
2023-02-07T08:54:19.978Z,104328.66
2023-02-07T08:56:21.563Z,104325.41
2023-02-07T08:58:23.038Z,104321.38
2023-02-07T09:00:24.687Z,104322.56
2023-02-07T09:02:26.451Z,104320.34
2023-02-07T09:04:28.117Z,104315.56
2023-02-07T09:06:29.620Z,104315.00
2023-02-07T09:08:31.363Z,104312.66
2023-02-07T09:10:32.857Z,104321.72
2023-02-07T09:12:35.907Z,104320.25
2023-02-07T09:14:38.918Z,104313.66
2023-02-07T09:16:40.676Z,104312.31
2023-02-07T09:18:42.335Z,104315.16
2023-02-07T09:20:44.046Z,104319.69
2023-02-07T09:23:04.556Z,104320.06
2023-02-07T09:25:06.264Z,104314.34
2023-02-07T09:27:07.787Z,104319.00
2023-02-07T09:29:12.872Z,104308.75
2023-02-07T09:31:15.763Z,104310.56
2023-02-07T09:33:17.558Z,104312.72
2023-02-07T09:35:19.086Z,104312.19
2023-02-07T09:37:20.637Z,104302.06
2023-02-07T09:39:22.119Z,104306.69
2023-02-07T09:41:42.029Z,104314.03
2023-02-07T09:44:11.745Z,104313.59
2023-02-07T09:46:25.032Z,104317.38
2023-02-07T09:48:44.721Z,104312.53
2023-02-07T09:50:51.875Z,104315.50
2023-02-07T09:52:58.922Z,104319.34
2023-02-07T09:55:01.644Z,104313.59
2023-02-07T09:57:08.549Z,104316.53
2023-02-07T09:59:29.320Z,104313.41
2023-02-07T10:01:44.139Z,104312.19
2023-02-07T10:04:00.585Z,104321.19
2023-02-07T10:06:17.870Z,104320.81
2023-02-07T10:08:20.158Z,104320.34
2023-02-07T10:10:30.656Z,104321.59
2023-02-07T10:12:47.422Z,104318.44
2023-02-07T10:14:57.800Z,104318.13
2023-02-07T10:17:31.617Z,104315.97
2023-02-07T10:19:36.675Z,104313.16
2023-02-07T10:22:16.414Z,104319.84
2023-02-07T10:24:48.946Z,104317.72
2023-02-07T10:26:59.973Z,104315.56
2023-02-07T10:29:10.525Z,104316.13
2023-02-07T10:31:19.231Z,104300.91
2023-02-07T10:33:24.107Z,104297.94
2023-02-07T10:35:34.080Z,104302.56
2023-02-07T10:37:39.004Z,104305.63
2023-02-07T10:39:50.347Z,104311.28
2023-02-07T10:41:57.427Z,104307.63
2023-02-07T10:43:59.064Z,104309.66
2023-02-07T10:46:09.918Z,104314.59
2023-02-07T10:48:17.415Z,104312.06
2023-02-07T10:50:29.829Z,104304.47
2023-02-07T10:52:39.357Z,104307.94
2023-02-07T10:54:52.668Z,104293.75
2023-02-07T10:57:02.577Z,104304.03
2023-02-07T10:59:04.792Z,104292.44
2023-02-07T11:01:16.926Z,104288.97
2023-02-07T11:03:22.174Z,104292.59
2023-02-07T11:05:23.666Z,104285.84
2023-02-07T11:07:26.315Z,104279.94
2023-02-07T11:09:28.026Z,104278.25
2023-02-07T11:11:36.852Z,104281.97
2023-02-07T11:13:47.718Z,104277.91
2023-02-07T11:16:08.819Z,104279.50
2023-02-07T11:18:28.802Z,104278.53
2023-02-07T11:20:41.173Z,104272.56
2023-02-07T11:22:43.523Z,104275.28
2023-02-07T11:24:47.035Z,104265.53
2023-02-07T11:27:07.911Z,104269.63
2023-02-07T11:29:18.996Z,104256.06
2023-02-07T11:31:29.612Z,104253.34
2023-02-07T11:33:34.253Z,104254.69
2023-02-07T11:35:36.074Z,104250.28
2023-02-07T11:37:47.875Z,104242.09
2023-02-07T11:39:50.713Z,104242.88
2023-02-07T11:41:59.916Z,104238.03
2023-02-07T11:44:13.767Z,104224.88
2023-02-07T11:46:15.378Z,104229.50
2023-02-07T11:48:25.615Z,104224.22
2023-02-07T11:50:43.791Z,104219.69
2023-02-07T11:52:54.491Z,104222.28
2023-02-07T11:55:00.026Z,104226.81
2023-02-07T11:57:07.035Z,104213.31
2023-02-07T11:59:16.431Z,104218.34
2023-02-07T12:01:30.149Z,104208.03
2023-02-07T12:03:52.797Z,104210.19
2023-02-07T12:05:59.146Z,104214.00
2023-02-07T12:08:06.513Z,104214.56
2023-02-07T12:10:15.381Z,104213.34
2023-02-07T12:12:35.705Z,104213.16
2023-02-07T12:14:46.264Z,104214.47
2023-02-07T12:16:56.297Z,104216.38
2023-02-07T12:19:40.004Z,104216.78
2023-02-07T12:21:53.935Z,104214.81
2023-02-07T12:24:14.107Z,104210.78
2023-02-07T12:26:24.134Z,104215.25
2023-02-07T12:28:36.566Z,104207.25
2023-02-07T12:30:45.348Z,104213.09
2023-02-07T12:33:01.308Z,104209.25
2023-02-07T12:35:17.367Z,104215.97
2023-02-07T12:37:32.580Z,104210.69
2023-02-07T12:39:40.725Z,104215.16
2023-02-07T12:41:48.469Z,104210.75
2023-02-07T12:44:10.091Z,104210.16
2023-02-07T12:46:24.816Z,104215.88
2023-02-07T12:48:51.106Z,104213.00
2023-02-07T12:50:55.599Z,104214.59
2023-02-07T12:53:09.066Z,104220.34
2023-02-07T12:55:48.411Z,104209.00
2023-02-07T12:58:05.851Z,104206.25
2023-02-07T13:00:14.763Z,104210.66
2023-02-07T13:02:41.002Z,104187.03
2023-02-07T13:05:06.362Z,104194.78
2023-02-07T13:07:26.174Z,104196.25
2023-02-07T13:09:33.902Z,104198.94
2023-02-07T13:11:49.874Z,104197.41
2023-02-07T13:14:20.403Z,104205.59
2023-02-07T13:16:34.619Z,104204.69
2023-02-07T13:19:04.721Z,104202.97
2023-02-07T13:21:27.711Z,104198.16
2023-02-07T13:23:33.025Z,104195.66
2023-02-07T13:25:38.589Z,104191.25
2023-02-07T13:27:42.040Z,104193.88
2023-02-07T13:29:45.557Z,104194.06
2023-02-07T13:31:51.504Z,104192.16
2023-02-07T13:33:53.756Z,104197.66
2023-02-07T13:36:01.074Z,104194.06
2023-02-07T13:38:17.017Z,104195.22
2023-02-07T13:40:50.783Z,104192.16
2023-02-07T13:43:10.160Z,104192.78
2023-02-07T13:45:29.961Z,104194.13
2023-02-07T13:47:34.166Z,104192.56
2023-02-07T13:49:51.026Z,104186.69
2023-02-07T13:52:12.718Z,104187.56
2023-02-07T13:54:42.200Z,104178.22
2023-02-07T13:57:15.459Z,104183.84
2023-02-07T13:59:39.170Z,104183.47
2023-02-07T14:02:14.633Z,104182.25
2023-02-07T14:04:17.479Z,104178.22
2023-02-07T14:06:26.121Z,104186.97
2023-02-07T14:08:27.621Z,104177.84
2023-02-07T14:10:43.524Z,104186.53
2023-02-07T14:12:48.628Z,104180.34
2023-02-07T14:15:01.840Z,104170.66
2023-02-07T14:17:05.175Z,104176.00
2023-02-07T14:19:12.504Z,104186.59
2023-02-07T14:21:20.169Z,104191.22
2023-02-07T14:23:21.684Z,104187.41
2023-02-07T14:25:38.060Z,104185.44
2023-02-07T14:27:42.768Z,104190.22
2023-02-07T14:29:56.081Z,104190.75
2023-02-07T14:32:21.411Z,104194.13
2023-02-07T14:34:28.248Z,104204.47
2023-02-07T14:36:29.813Z,104201.91
2023-02-07T14:38:38.578Z,104209.25
2023-02-07T14:40:42.776Z,104200.34
2023-02-07T14:42:57.949Z,104208.06
2023-02-07T14:44:59.606Z,104211.38
2023-02-07T14:47:03.530Z,104203.44
2023-02-07T14:49:13.719Z,104203.66
2023-02-07T14:51:22.265Z,104202.63
2023-02-07T14:53:24.276Z,104206.47
2023-02-07T14:55:35.102Z,104209.03
2023-02-07T14:58:00.838Z,104201.22
2023-02-07T15:00:04.946Z,104203.72
2023-02-07T15:02:44.076Z,104199.91
2023-02-07T15:04:45.749Z,104195.78
2023-02-07T15:06:47.307Z,104200.41
2023-02-07T15:08:58.045Z,104202.53
2023-02-07T15:11:02.519Z,104201.50
2023-02-07T15:13:17.193Z,104198.44
2023-02-07T15:15:23.594Z,104189.47
2023-02-07T15:17:43.447Z,104200.28
2023-02-07T15:19:45.377Z,104204.78
2023-02-07T15:21:49.535Z,104206.03
2023-02-07T15:24:00.460Z,104199.66
2023-02-07T15:26:07.570Z,104208.66
2023-02-07T15:28:28.199Z,104208.19
2023-02-07T15:30:30.376Z,104206.03
2023-02-07T15:32:35.282Z,104209.38
2023-02-07T15:34:36.827Z,104206.38
2023-02-07T15:36:42.279Z,104212.91
2023-02-07T15:38:44.298Z,104199.44
2023-02-07T15:40:45.858Z,104206.94
2023-02-07T15:42:56.370Z,104202.34
2023-02-07T15:44:58.411Z,104215.34
2023-02-07T15:47:05.384Z,104211.00
2023-02-07T15:49:08.026Z,104208.88
2023-02-07T15:51:12.014Z,104207.97
2023-02-07T15:53:22.662Z,104207.78
2023-02-07T15:55:35.036Z,104210.31
2023-02-07T15:57:41.805Z,104203.19
2023-02-07T15:59:43.417Z,104208.88
2023-02-07T16:01:53.224Z,104208.25
2023-02-07T16:03:56.539Z,104208.00
2023-02-07T16:06:20.965Z,104197.38
2023-02-07T16:08:36.980Z,104199.72
2023-02-07T16:10:40.052Z,104205.50
2023-02-07T16:12:53.062Z,104206.03
2023-02-07T16:14:54.669Z,104200.53
2023-02-07T16:16:58.247Z,104208.97
2023-02-07T16:19:30.382Z,104204.22
2023-02-07T16:21:33.531Z,104198.56
2023-02-07T16:23:35.278Z,104200.81
2023-02-07T16:25:37.096Z,104203.03
2023-02-07T16:27:40.256Z,104193.97
2023-02-07T16:29:41.916Z,104191.03
2023-02-07T16:31:44.144Z,104195.09
2023-02-07T16:33:45.613Z,104189.59
2023-02-07T16:35:47.148Z,104180.94
2023-02-07T16:37:49.557Z,104186.78
2023-02-07T16:39:51.013Z,104181.22
2023-02-07T16:41:56.525Z,104183.44
2023-02-07T16:43:59.597Z,104176.03
2023-02-07T16:46:04.949Z,104183.47
2023-02-07T16:48:13.681Z,104180.47
2023-02-07T16:50:21.355Z,104178.31
2023-02-07T16:52:22.809Z,104182.31
2023-02-07T16:54:25.184Z,104187.25
2023-02-07T16:56:27.778Z,104187.75
2023-02-07T16:58:31.880Z,104177.97
2023-02-07T17:00:33.558Z,104180.13
2023-02-07T17:02:35.156Z,104176.34
2023-02-07T17:04:36.620Z,104181.25
2023-02-07T17:06:39.254Z,104172.38
2023-02-07T17:08:41.071Z,104178.97
2023-02-07T17:10:48.065Z,104180.38
2023-02-07T17:12:49.586Z,104172.88
2023-02-07T17:14:51.097Z,104183.00
2023-02-07T17:16:52.564Z,104179.28
2023-02-07T17:18:54.250Z,104186.06
2023-02-07T17:20:56.738Z,104185.06
2023-02-07T17:22:58.780Z,104183.16
2023-02-07T17:25:01.000Z,104183.06
2023-02-07T17:27:02.524Z,104189.78
2023-02-07T17:29:05.103Z,104194.66
2023-02-07T17:31:06.761Z,104186.56
2023-02-07T17:33:09.880Z,104187.16
2023-02-07T17:35:11.945Z,104192.75
2023-02-07T17:37:13.463Z,104188.75
2023-02-07T17:39:17.312Z,104192.91
2023-02-07T17:41:20.050Z,104192.81
2023-02-07T17:43:21.552Z,104196.13
2023-02-07T17:45:23.632Z,104198.50
2023-02-07T17:47:25.878Z,104202.69
2023-02-07T17:49:27.317Z,104191.31
2023-02-07T17:51:29.193Z,104194.59
2023-02-07T17:53:30.641Z,104191.78
2023-02-07T17:55:33.155Z,104195.19
2023-02-07T17:57:34.614Z,104194.09
2023-02-07T17:59:36.049Z,104195.69
2023-02-07T18:01:37.487Z,104191.06
2023-02-07T18:03:38.996Z,104191.66
2023-02-07T18:05:42.182Z,104190.56
2023-02-07T18:07:45.870Z,104190.25
2023-02-07T18:09:47.318Z,104189.00
2023-02-07T18:11:49.542Z,104193.97
2023-02-07T18:13:51.025Z,104191.06
2023-02-07T18:15:52.594Z,104190.84
2023-02-07T18:17:54.574Z,104192.44
2023-02-07T18:19:56.097Z,104193.94
2023-02-07T18:21:57.523Z,104192.81
2023-02-07T18:23:59.008Z,104191.59
2023-02-07T18:26:00.798Z,104180.09
2023-02-07T18:28:02.283Z,104186.88
2023-02-07T18:30:05.880Z,104188.25
2023-02-07T18:32:07.338Z,104186.25
2023-02-07T18:34:09.252Z,104195.56
2023-02-07T18:36:11.177Z,104193.66
2023-02-07T18:38:12.835Z,104202.81
2023-02-07T18:40:15.785Z,104198.31
2023-02-07T18:42:17.980Z,104197.19
2023-02-07T18:44:20.320Z,104198.69
2023-02-07T18:46:21.941Z,104194.19
2023-02-07T18:48:23.426Z,104200.06
2023-02-07T18:50:25.400Z,104205.03
2023-02-07T18:52:26.905Z,104199.63
2023-02-07T18:54:28.513Z,104209.19
2023-02-07T18:56:30.112Z,104202.22
2023-02-07T18:58:33.362Z,104205.47
2023-02-07T19:00:34.842Z,104206.16
2023-02-07T19:02:36.694Z,104207.75
2023-02-07T19:04:38.548Z,104204.16
2023-02-07T19:06:40.006Z,104209.34
2023-02-07T19:08:41.491Z,104219.50
2023-02-07T19:10:42.933Z,104213.94
2023-02-07T19:12:44.398Z,104213.03
2023-02-07T19:14:45.942Z,104218.91
2023-02-07T19:16:49.475Z,104215.41
2023-02-07T19:18:51.013Z,104215.06
2023-02-07T19:20:52.480Z,104220.16
2023-02-07T19:22:53.999Z,104219.94
2023-02-07T19:24:56.735Z,104223.09
2023-02-07T19:26:59.202Z,104220.38
2023-02-07T19:29:02.148Z,104209.91
2023-02-07T19:31:08.527Z,104204.38
2023-02-07T19:33:10.074Z,104204.16
2023-02-07T19:35:11.529Z,104204.03
2023-02-07T19:37:12.960Z,104204.84
2023-02-07T19:39:14.473Z,104204.59
2023-02-07T19:41:19.206Z,104202.69
2023-02-07T19:43:20.839Z,104205.28
2023-02-07T19:45:22.345Z,104199.97
2023-02-07T19:47:23.814Z,104202.69
2023-02-07T19:49:26.374Z,104198.19
2023-02-07T19:51:29.460Z,104194.56
2023-02-07T19:53:31.627Z,104193.53
2023-02-07T19:55:33.202Z,104199.38
2023-02-07T19:57:35.209Z,104194.88
2023-02-07T19:59:37.154Z,104193.97
2023-02-07T20:01:38.723Z,104192.06
2023-02-07T20:03:41.264Z,104183.03
2023-02-07T20:05:44.170Z,104186.44
2023-02-07T20:07:45.643Z,104183.72
2023-02-07T20:09:47.436Z,104180.13
2023-02-07T20:11:49.110Z,104179.22
2023-02-07T20:13:55.401Z,104173.91
2023-02-07T20:15:56.868Z,104173.03
2023-02-07T20:17:58.354Z,104176.41
2023-02-07T20:20:01.422Z,104166.81
2023-02-07T20:22:02.941Z,104177.06
2023-02-07T20:24:05.056Z,104170.88
2023-02-07T20:26:10.359Z,104169.84
2023-02-07T20:28:11.924Z,104168.84
2023-02-07T20:30:13.669Z,104173.91
2023-02-07T20:32:16.177Z,104172.91
2023-02-07T20:34:17.731Z,104169.41
2023-02-07T20:36:20.369Z,104168.28
2023-02-07T20:38:21.938Z,104170.63
2023-02-07T20:40:23.401Z,104171.38
2023-02-07T20:42:24.840Z,104179.03
2023-02-07T20:44:26.684Z,104172.06
2023-02-07T20:46:29.826Z,104172.72
2023-02-07T20:48:31.252Z,104174.31
2023-02-07T20:50:32.959Z,104176.78
2023-02-07T20:52:37.037Z,104180.03
2023-02-07T20:54:38.575Z,104183.31
2023-02-07T20:56:40.067Z,104179.47
2023-02-07T20:58:41.567Z,104181.03
2023-02-07T21:00:43.014Z,104183.50
2023-02-07T21:02:44.500Z,104187.78
2023-02-07T21:04:46.161Z,104186.75
2023-02-07T21:06:47.927Z,104179.78
2023-02-07T21:08:53.313Z,104177.97
2023-02-07T21:10:55.151Z,104185.63
2023-02-07T21:12:59.305Z,104186.28
2023-02-07T21:15:00.785Z,104183.47
2023-02-07T21:17:08.309Z,104182.56
2023-02-07T21:19:10.973Z,104185.16
2023-02-07T21:21:14.453Z,104181.44
2023-02-07T21:23:17.036Z,104184.69
2023-02-07T21:25:18.490Z,104183.66
2023-02-07T21:27:19.970Z,104182.63
2023-02-07T21:29:22.795Z,104182.38
2023-02-07T21:31:24.393Z,104181.38
2023-02-07T21:33:25.850Z,104186.41
2023-02-07T21:35:27.369Z,104181.13
2023-02-07T21:37:28.863Z,104180.09
2023-02-07T21:39:30.337Z,104190.34
2023-02-07T21:41:31.906Z,104186.72
2023-02-07T21:43:34.553Z,104179.63
2023-02-07T21:45:36.115Z,104184.69
2023-02-07T21:47:37.632Z,104180.19
2023-02-07T21:49:39.118Z,104183.44
2023-02-07T21:51:44.171Z,104182.41
2023-02-07T21:53:45.959Z,104191.84
2023-02-07T21:55:47.443Z,104194.31
2023-02-07T21:57:48.951Z,104192.53
2023-02-07T21:59:50.408Z,104195.00
2023-02-07T22:01:52.273Z,104202.75
2023-02-07T22:03:55.880Z,104197.34
2023-02-07T22:05:57.352Z,104203.16
2023-02-07T22:07:58.871Z,104205.75
2023-02-07T22:10:00.348Z,104207.31
2023-02-07T22:12:01.856Z,104204.63
2023-02-07T22:14:04.055Z,104203.72
2023-02-07T22:16:07.394Z,104203.59
2023-02-07T22:18:08.889Z,104200.84
2023-02-07T22:20:10.760Z,104205.91
2023-02-07T22:22:12.266Z,104202.16
2023-02-07T22:24:15.911Z,104200.47
2023-02-07T22:26:18.648Z,104202.03
2023-02-07T22:28:20.184Z,104205.16
2023-02-07T22:30:21.904Z,104207.63
2023-02-07T22:32:23.406Z,104206.63
2023-02-07T22:34:25.034Z,104208.28
2023-02-07T22:36:29.155Z,104212.44
2023-02-07T22:38:30.686Z,104202.88
2023-02-07T22:40:36.865Z,104202.88
2023-02-07T22:42:38.349Z,104196.56
2023-02-07T22:44:39.896Z,104196.44
2023-02-07T22:46:41.501Z,104203.94
2023-02-07T22:48:43.573Z,104199.44
2023-02-07T22:50:45.048Z,104194.94
2023-02-07T22:52:47.005Z,104193.91
2023-02-07T22:54:48.476Z,104196.38
2023-02-07T22:56:50.086Z,104194.56
2023-02-07T22:58:52.158Z,104197.81
2023-02-07T23:00:53.643Z,104193.28
2023-02-07T23:02:55.135Z,104191.47
2023-02-07T23:04:56.569Z,104181.94
2023-02-07T23:06:58.044Z,104193.00
2023-02-07T23:09:00.431Z,104181.75
2023-02-07T23:11:01.903Z,104188.50
2023-02-07T23:13:03.487Z,104190.19
2023-02-07T23:15:05.661Z,104189.16
2023-02-07T23:17:07.258Z,104191.63
2023-02-07T23:19:14.520Z,104191.63
2023-02-07T23:21:18.725Z,104193.28
2023-02-07T23:23:22.060Z,104190.59
2023-02-07T23:25:23.738Z,104190.47
2023-02-07T23:27:25.216Z,104192.03
2023-02-07T23:29:27.116Z,104189.31
2023-02-07T23:31:28.896Z,104189.84
2023-02-07T23:33:30.378Z,104188.81
2023-02-07T23:35:33.805Z,104192.06
2023-02-07T23:37:35.508Z,104189.47
2023-02-07T23:39:36.963Z,104190.38
2023-02-07T23:41:38.509Z,104187.66
2023-02-07T23:43:40.053Z,104185.84
2023-02-07T23:45:41.493Z,104184.97
2023-02-07T23:47:42.990Z,104184.84
2023-02-07T23:49:44.460Z,104190.00
2023-02-07T23:51:45.915Z,104190.66
2023-02-07T23:53:47.726Z,104188.84